Aviation Digital Data Service (ADDS)

Output produced by METARs form (0311 UTC 28 February 2017)
found at http://aviationweather.gov/adds/metars/
 
KJST 272339Z 2800/2824 20005KT P6SM VCSH BKN015 OVC050 
     FM280200 20008KT P6SM OVC050 
     FM281800 17008KT P6SM VCSH OVC035 
     FM282000 17008KT 5SM -SHRA BR OVC025